sensor_id;sensor_type;location;lat;lon;timestamp;temperature;humidity
53776;DHT22;44276;49.534;6.378;2024-01-15T00:01:14;-2.50;99.90
53776;DHT22;44276;49.534;6.378;2024-01-15T00:03:42;-2.40;99.90
53776;DHT22;44276;49.534;6.378;2024-01-15T00:06:13;-2.40;99.90
53776;DHT22;44276;49.534;6.378;2024-01-15T00:08:42;-2.40;99.90
53776;DHT22;44276;49.534;6.378;2024-01-15T00:11:10;-2.40;99.90
53776;DHT22;44276;49.534;6.378;2024-01-15T00:13:38;-2.40;99.90
53776;DHT22;44276;49.534;6.378;2024-01-15T00:16:07;-2.40;99.90
53776;DHT22;44276;49.534;6.378;2024-01-15T00:18:37;-2.40;99.90
53776;DHT22;44276;49.534;6.378;2024-01-15T00:21:05;-2.40;99.90
53776;DHT22;44276;49.534;6.378;2024-01-15T00:23:33;-2.40;99.90
53776;DHT22;44276;49.534;6.378;2024-01-15T00:26:02;-2.40;99.90
53776;DHT22;44276;49.534;6.378;2024-01-15T00:28:33;-2.40;99.90
53776;DHT22;44276;49.534;6.378;2024-01-15T00:31:01;-2.40;99.90
53776;DHT22;44276;49.534;6.378;2024-01-15T00:33:30;-2.40;99.90
53776;DHT22;44276;49.534;6.378;2024-01-15T00:36:00;-2.40;99.90
53776;DHT22;44276;49.534;6.378;2024-01-15T00:38:30;-2.40;99.90
53776;DHT22;44276;49.534;6.378;2024-01-15T00:40:58;-2.30;99.90
53776;DHT22;44276;49.534;6.378;2024-01-15T00:43:26;-2.30;99.90
53776;DHT22;44276;49.534;6.378;2024-01-15T00:45:54;-2.30;99.90
53776;DHT22;44276;49.534;6.378;2024-01-15T00:48:22;-2.30;99.90
53776;DHT22;44276;49.534;6.378;2024-01-15T00:50:51;-2.30;99.90
53776;DHT22;44276;49.534;6.378;2024-01-15T00:53:22;-2.30;99.90
53776;DHT22;44276;49.534;6.378;2024-01-15T00:55:50;-2.30;99.90
53776;DHT22;44276;49.534;6.378;2024-01-15T00:58:19;-2.30;99.90
53776;DHT22;44276;49.534;6.378;2024-01-15T01:00:47;-2.30;99.90
53776;DHT22;44276;49.534;6.378;2024-01-15T01:03:15;-2.30;99.90
53776;DHT22;44276;49.534;6.378;2024-01-15T01:05:44;-2.30;99.90
53776;DHT22;44276;49.534;6.378;2024-01-15T01:08:12;-2.30;99.90
53776;DHT22;44276;49.534;6.378;2024-01-15T01:10:42;-2.30;99.90
53776;DHT22;44276;49.534;6.378;2024-01-15T01:13:10;-2.30;99.90
53776;DHT22;44276;49.534;6.378;2024-01-15T01:15:39;-2.30;99.90
53776;DHT22;44276;49.534;6.378;2024-01-15T01:18:07;-2.20;99.90
53776;DHT22;44276;49.534;6.378;2024-01-15T01:20:36;-2.30;99.90
53776;DHT22;44276;49.534;6.378;2024-01-15T01:23:04;-2.20;99.90
53776;DHT22;44276;49.534;6.378;2024-01-15T01:25:33;-2.20;99.90
53776;DHT22;44276;49.534;6.378;2024-01-15T01:28:03;-2.20;99.90
53776;DHT22;44276;49.534;6.378;2024-01-15T01:30:31;-2.20;99.90
53776;DHT22;44276;49.534;6.378;2024-01-15T01:32:59;-2.20;99.90
53776;DHT22;44276;49.534;6.378;2024-01-15T01:35:28;-2.10;99.90
53776;DHT22;44276;49.534;6.378;2024-01-15T01:37:56;-2.10;99.90
53776;DHT22;44276;49.534;6.378;2024-01-15T01:40:24;-2.10;99.90
53776;DHT22;44276;49.534;6.378;2024-01-15T01:42:53;-2.10;99.90
53776;DHT22;44276;49.534;6.378;2024-01-15T01:45:23;-2.10;99.90
53776;DHT22;44276;49.534;6.378;2024-01-15T01:47:51;-2.10;99.90
53776;DHT22;44276;49.534;6.378;2024-01-15T01:50:20;-2.10;99.90
53776;DHT22;44276;49.534;6.378;2024-01-15T01:52:48;-2.20;99.90
53776;DHT22;44276;49.534;6.378;2024-01-15T01:55:18;-2.10;99.90
53776;DHT22;44276;49.534;6.378;2024-01-15T01:57:48;-2.10;99.90
53776;DHT22;44276;49.534;6.378;2024-01-15T02:00:18;-2.10;99.90
53776;DHT22;44276;49.534;6.378;2024-01-15T02:02:47;-2.10;99.90
53776;DHT22;44276;49.534;6.378;2024-01-15T02:05:18;-2.10;99.90
53776;DHT22;44276;49.534;6.378;2024-01-15T02:07:48;-2.10;99.90
53776;DHT22;44276;49.534;6.378;2024-01-15T02:10:17;-2.00;99.90
53776;DHT22;44276;49.534;6.378;2024-01-15T02:12:46;-2.00;99.90
53776;DHT22;44276;49.534;6.378;2024-01-15T02:15:15;-2.00;99.90
53776;DHT22;44276;49.534;6.378;2024-01-15T02:18:06;-2.00;99.90
53776;DHT22;44276;49.534;6.378;2024-01-15T02:20:35;-2.00;99.90
53776;DHT22;44276;49.534;6.378;2024-01-15T02:23:08;-2.00;99.90
53776;DHT22;44276;49.534;6.378;2024-01-15T02:25:38;-1.90;99.90
53776;DHT22;44276;49.534;6.378;2024-01-15T02:28:10;-1.90;99.90
53776;DHT22;44276;49.534;6.378;2024-01-15T02:30:40;-1.90;99.90
53776;DHT22;44276;49.534;6.378;2024-01-15T02:33:10;-1.90;99.90
53776;DHT22;44276;49.534;6.378;2024-01-15T02:35:40;-1.90;99.90
53776;DHT22;44276;49.534;6.378;2024-01-15T02:38:09;-1.90;99.90
53776;DHT22;44276;49.534;6.378;2024-01-15T02:40:38;-1.90;99.90
53776;DHT22;44276;49.534;6.378;2024-01-15T02:43:06;-1.80;99.90
53776;DHT22;44276;49.534;6.378;2024-01-15T02:45:35;-1.80;99.90
53776;DHT22;44276;49.534;6.378;2024-01-15T02:48:03;-1.80;99.90
53776;DHT22;44276;49.534;6.378;2024-01-15T02:50:32;-1.80;99.90
53776;DHT22;44276;49.534;6.378;2024-01-15T02:53:00;-1.80;99.90
53776;DHT22;44276;49.534;6.378;2024-01-15T02:55:30;-1.70;99.90
53776;DHT22;44276;49.534;6.378;2024-01-15T02:57:59;-1.70;99.90
53776;DHT22;44276;49.534;6.378;2024-01-15T03:00:27;-1.70;99.90
53776;DHT22;44276;49.534;6.378;2024-01-15T03:02:56;-1.70;99.90
53776;DHT22;44276;49.534;6.378;2024-01-15T03:05:24;-1.70;99.90
53776;DHT22;44276;49.534;6.378;2024-01-15T03:07:52;-1.70;99.90
53776;DHT22;44276;49.534;6.378;2024-01-15T03:10:20;-1.60;99.90
53776;DHT22;44276;49.534;6.378;2024-01-15T03:12:50;-1.70;99.90
53776;DHT22;44276;49.534;6.378;2024-01-15T03:15:18;-1.70;99.90
53776;DHT22;44276;49.534;6.378;2024-01-15T03:17:47;-1.70;99.90
53776;DHT22;44276;49.534;6.378;2024-01-15T03:20:15;-1.70;99.90
53776;DHT22;44276;49.534;6.378;2024-01-15T03:22:43;-1.70;99.90
53776;DHT22;44276;49.534;6.378;2024-01-15T03:25:12;-1.60;99.90
53776;DHT22;44276;49.534;6.378;2024-01-15T03:27:40;-1.60;99.90
53776;DHT22;44276;49.534;6.378;2024-01-15T03:30:11;-1.60;99.90
53776;DHT22;44276;49.534;6.378;2024-01-15T03:32:40;-1.60;99.90
53776;DHT22;44276;49.534;6.378;2024-01-15T03:35:09;-1.60;99.90
53776;DHT22;44276;49.534;6.378;2024-01-15T03:37:37;-1.60;99.90
53776;DHT22;44276;49.534;6.378;2024-01-15T03:40:07;-1.60;99.90
53776;DHT22;44276;49.534;6.378;2024-01-15T03:42:36;-1.60;99.90
53776;DHT22;44276;49.534;6.378;2024-01-15T03:45:05;-1.60;99.90
53776;DHT22;44276;49.534;6.378;2024-01-15T03:47:35;-1.60;99.90
53776;DHT22;44276;49.534;6.378;2024-01-15T03:50:04;-1.60;99.90
53776;DHT22;44276;49.534;6.378;2024-01-15T03:52:33;-1.60;99.90
53776;DHT22;44276;49.534;6.378;2024-01-15T03:55:01;-1.60;99.90
53776;DHT22;44276;49.534;6.378;2024-01-15T03:57:30;-1.60;99.90
53776;DHT22;44276;49.534;6.378;2024-01-15T03:59:58;-1.60;99.90
53776;DHT22;44276;49.534;6.378;2024-01-15T04:02:26;-1.60;99.90
53776;DHT22;44276;49.534;6.378;2024-01-15T04:04:56;-1.60;99.90
53776;DHT22;44276;49.534;6.378;2024-01-15T04:07:25;-1.60;99.90
53776;DHT22;44276;49.534;6.378;2024-01-15T04:09:53;-1.60;99.90
53776;DHT22;44276;49.534;6.378;2024-01-15T04:12:21;-1.60;99.90
53776;DHT22;44276;49.534;6.378;2024-01-15T04:14:50;-1.60;99.90
53776;DHT22;44276;49.534;6.378;2024-01-15T04:17:18;-1.60;99.90
53776;DHT22;44276;49.534;6.378;2024-01-15T04:19:48;-1.50;99.90
53776;DHT22;44276;49.534;6.378;2024-01-15T04:22:18;-1.50;99.90
53776;DHT22;44276;49.534;6.378;2024-01-15T04:24:46;-1.50;99.90
53776;DHT22;44276;49.534;6.378;2024-01-15T04:27:14;-1.50;99.90
53776;DHT22;44276;49.534;6.378;2024-01-15T04:29:43;-1.50;99.90
53776;DHT22;44276;49.534;6.378;2024-01-15T04:32:12;-1.50;99.90
53776;DHT22;44276;49.534;6.378;2024-01-15T04:34:40;-1.50;99.90
53776;DHT22;44276;49.534;6.378;2024-01-15T04:37:09;-1.50;99.90
53776;DHT22;44276;49.534;6.378;2024-01-15T04:39:39;-1.50;99.90
53776;DHT22;44276;49.534;6.378;2024-01-15T04:42:07;-1.50;99.90
53776;DHT22;44276;49.534;6.378;2024-01-15T04:44:35;-1.50;99.90
53776;DHT22;44276;49.534;6.378;2024-01-15T04:47:04;-1.50;99.90
53776;DHT22;44276;49.534;6.378;2024-01-15T04:49:32;-1.50;99.90
53776;DHT22;44276;49.534;6.378;2024-01-15T04:52:01;-1.50;99.90
53776;DHT22;44276;49.534;6.378;2024-01-15T04:54:29;-1.50;99.90
53776;DHT22;44276;49.534;6.378;2024-01-15T04:56:59;-1.50;99.90
53776;DHT22;44276;49.534;6.378;2024-01-15T04:59:27;-1.40;99.90
53776;DHT22;44276;49.534;6.378;2024-01-15T05:01:56;-1.50;99.90
53776;DHT22;44276;49.534;6.378;2024-01-15T05:04:24;-1.50;99.90
53776;DHT22;44276;49.534;6.378;2024-01-15T05:06:53;-1.50;99.90
53776;DHT22;44276;49.534;6.378;2024-01-15T05:09:21;-1.50;99.90
53776;DHT22;44276;49.534;6.378;2024-01-15T05:11:50;-1.40;99.90
53776;DHT22;44276;49.534;6.378;2024-01-15T05:14:19;-1.40;99.90
53776;DHT22;44276;49.534;6.378;2024-01-15T05:16:48;-1.40;99.90
53776;DHT22;44276;49.534;6.378;2024-01-15T05:19:18;-1.40;99.90
53776;DHT22;44276;49.534;6.378;2024-01-15T05:21:47;-1.40;99.90
53776;DHT22;44276;49.534;6.378;2024-01-15T05:24:15;-1.30;99.90
53776;DHT22;44276;49.534;6.378;2024-01-15T05:26:44;-1.30;99.90
53776;DHT22;44276;49.534;6.378;2024-01-15T05:29:12;-1.20;99.90
53776;DHT22;44276;49.534;6.378;2024-01-15T05:31:42;-1.30;99.90
53776;DHT22;44276;49.534;6.378;2024-01-15T05:34:10;-1.20;99.90
53776;DHT22;44276;49.534;6.378;2024-01-15T05:36:39;-1.20;99.90
53776;DHT22;44276;49.534;6.378;2024-01-15T05:39:07;-1.20;99.90
53776;DHT22;44276;49.534;6.378;2024-01-15T05:41:36;-1.20;99.90
53776;DHT22;44276;49.534;6.378;2024-01-15T05:44:04;-1.10;99.90
53776;DHT22;44276;49.534;6.378;2024-01-15T05:46:33;-1.20;99.90
53776;DHT22;44276;49.534;6.378;2024-01-15T05:49:02;-1.20;99.90
53776;DHT22;44276;49.534;6.378;2024-01-15T05:51:31;-1.20;99.90
53776;DHT22;44276;49.534;6.378;2024-01-15T05:53:59;-1.20;99.90
53776;DHT22;44276;49.534;6.378;2024-01-15T05:56:27;-1.20;99.90
53776;DHT22;44276;49.534;6.378;2024-01-15T05:58:56;-1.20;99.90
53776;DHT22;44276;49.534;6.378;2024-01-15T06:01:24;-1.20;99.90
53776;DHT22;44276;49.534;6.378;2024-01-15T06:03:53;-1.20;99.90
53776;DHT22;44276;49.534;6.378;2024-01-15T06:06:23;-1.20;99.90
53776;DHT22;44276;49.534;6.378;2024-01-15T06:08:51;-1.20;99.90
53776;DHT22;44276;49.534;6.378;2024-01-15T06:11:20;-1.20;99.90
53776;DHT22;44276;49.534;6.378;2024-01-15T06:13:48;-1.10;99.90
53776;DHT22;44276;49.534;6.378;2024-01-15T06:16:17;-1.20;99.90
53776;DHT22;44276;49.534;6.378;2024-01-15T06:18:47;-1.20;99.90
53776;DHT22;44276;49.534;6.378;2024-01-15T06:21:14;-1.20;99.90
53776;DHT22;44276;49.534;6.378;2024-01-15T06:23:45;-1.10;99.90
53776;DHT22;44276;49.534;6.378;2024-01-15T06:26:13;-1.10;99.90
53776;DHT22;44276;49.534;6.378;2024-01-15T06:28:42;-1.10;99.90
53776;DHT22;44276;49.534;6.378;2024-01-15T06:31:10;-1.10;99.90
53776;DHT22;44276;49.534;6.378;2024-01-15T06:33:39;-1.10;99.90
53776;DHT22;44276;49.534;6.378;2024-01-15T06:36:07;-1.10;99.90
53776;DHT22;44276;49.534;6.378;2024-01-15T06:38:37;-1.10;99.90
53776;DHT22;44276;49.534;6.378;2024-01-15T06:41:07;-1.10;99.90
53776;DHT22;44276;49.534;6.378;2024-01-15T06:43:35;-1.00;99.90
53776;DHT22;44276;49.534;6.378;2024-01-15T06:46:07;-1.10;99.90
53776;DHT22;44276;49.534;6.378;2024-01-15T06:48:42;-1.10;99.90
53776;DHT22;44276;49.534;6.378;2024-01-15T06:51:18;-1.10;99.90
53776;DHT22;44276;49.534;6.378;2024-01-15T06:53:48;-1.10;99.90
53776;DHT22;44276;49.534;6.378;2024-01-15T06:56:18;-1.00;99.90
53776;DHT22;44276;49.534;6.378;2024-01-15T06:58:49;-1.00;99.90
53776;DHT22;44276;49.534;6.378;2024-01-15T07:01:21;-1.00;99.90
53776;DHT22;44276;49.534;6.378;2024-01-15T07:03:52;-1.00;99.90
53776;DHT22;44276;49.534;6.378;2024-01-15T07:06:21;-1.00;99.90
53776;DHT22;44276;49.534;6.378;2024-01-15T07:08:54;-1.00;99.90
53776;DHT22;44276;49.534;6.378;2024-01-15T07:11:32;-1.00;99.90
53776;DHT22;44276;49.534;6.378;2024-01-15T07:14:06;-1.00;99.90
53776;DHT22;44276;49.534;6.378;2024-01-15T07:16:42;-1.00;99.90
53776;DHT22;44276;49.534;6.378;2024-01-15T07:19:14;-1.00;99.90
53776;DHT22;44276;49.534;6.378;2024-01-15T07:21:43;-1.00;99.90
53776;DHT22;44276;49.534;6.378;2024-01-15T07:24:11;-1.00;99.90
53776;DHT22;44276;49.534;6.378;2024-01-15T07:26:41;-1.00;99.90
53776;DHT22;44276;49.534;6.378;2024-01-15T07:29:09;-1.00;99.90
53776;DHT22;44276;49.534;6.378;2024-01-15T07:31:37;-1.10;99.90
53776;DHT22;44276;49.534;6.378;2024-01-15T07:34:06;-1.10;99.90
53776;DHT22;44276;49.534;6.378;2024-01-15T07:36:35;-1.10;99.90
53776;DHT22;44276;49.534;6.378;2024-01-15T07:39:04;-1.10;99.90
53776;DHT22;44276;49.534;6.378;2024-01-15T07:41:32;-1.10;99.90
53776;DHT22;44276;49.534;6.378;2024-01-15T07:44:02;-1.10;99.90
53776;DHT22;44276;49.534;6.378;2024-01-15T07:46:31;-1.10;99.90
53776;DHT22;44276;49.534;6.378;2024-01-15T07:48:59;-1.10;99.90
53776;DHT22;44276;49.534;6.378;2024-01-15T07:51:28;-1.10;99.90
53776;DHT22;44276;49.534;6.378;2024-01-15T07:53:56;-1.10;99.90
53776;DHT22;44276;49.534;6.378;2024-01-15T07:56:25;-0.90;99.90
53776;DHT22;44276;49.534;6.378;2024-01-15T07:58:54;-1.10;99.90
53776;DHT22;44276;49.534;6.378;2024-01-15T08:01:24;-1.10;99.90
53776;DHT22;44276;49.534;6.378;2024-01-15T08:03:52;-1.10;99.90
53776;DHT22;44276;49.534;6.378;2024-01-15T08:06:22;-1.00;99.90
53776;DHT22;44276;49.534;6.378;2024-01-15T08:08:51;-1.00;99.90
53776;DHT22;44276;49.534;6.378;2024-01-15T08:11:19;-0.90;99.90
53776;DHT22;44276;49.534;6.378;2024-01-15T08:13:47;-0.90;99.90
53776;DHT22;44276;49.534;6.378;2024-01-15T08:16:16;-0.90;99.90
53776;DHT22;44276;49.534;6.378;2024-01-15T08:18:46;-0.90;99.90
53776;DHT22;44276;49.534;6.378;2024-01-15T08:21:15;-0.90;99.90
53776;DHT22;44276;49.534;6.378;2024-01-15T08:23:43;-0.90;99.90
53776;DHT22;44276;49.534;6.378;2024-01-15T08:26:12;-0.90;99.90
53776;DHT22;44276;49.534;6.378;2024-01-15T08:28:40;-0.90;99.90
53776;DHT22;44276;49.534;6.378;2024-01-15T08:31:08;-0.90;99.90
53776;DHT22;44276;49.534;6.378;2024-01-15T08:33:37;-0.90;99.90
53776;DHT22;44276;49.534;6.378;2024-01-15T08:36:07;-0.90;99.90
53776;DHT22;44276;49.534;6.378;2024-01-15T08:38:37;-0.90;99.90
53776;DHT22;44276;49.534;6.378;2024-01-15T08:41:05;-0.90;99.90
53776;DHT22;44276;49.534;6.378;2024-01-15T08:43:35;-0.80;99.90
53776;DHT22;44276;49.534;6.378;2024-01-15T08:46:03;-0.80;99.90
53776;DHT22;44276;49.534;6.378;2024-01-15T08:48:31;-0.80;99.90
53776;DHT22;44276;49.534;6.378;2024-01-15T08:51:00;-0.70;99.90
53776;DHT22;44276;49.534;6.378;2024-01-15T08:53:30;-0.70;99.90
53776;DHT22;44276;49.534;6.378;2024-01-15T08:55:58;-0.60;99.90
53776;DHT22;44276;49.534;6.378;2024-01-15T08:58:26;-0.50;99.90
53776;DHT22;44276;49.534;6.378;2024-01-15T09:00:55;-0.40;99.90
53776;DHT22;44276;49.534;6.378;2024-01-15T09:03:24;-0.40;99.90
53776;DHT22;44276;49.534;6.378;2024-01-15T09:05:52;-0.30;99.90
53776;DHT22;44276;49.534;6.378;2024-01-15T09:08:21;-0.30;99.90
53776;DHT22;44276;49.534;6.378;2024-01-15T09:10:51;-0.20;99.90
53776;DHT22;44276;49.534;6.378;2024-01-15T09:13:19;-0.20;99.90
53776;DHT22;44276;49.534;6.378;2024-01-15T09:15:48;-0.10;99.90
53776;DHT22;44276;49.534;6.378;2024-01-15T09:18:17;-0.10;99.90
53776;DHT22;44276;49.534;6.378;2024-01-15T09:20:45;0.00;99.90
53776;DHT22;44276;49.534;6.378;2024-01-15T09:23:13;0.00;99.90
53776;DHT22;44276;49.534;6.378;2024-01-15T09:25:42;0.10;99.90
53776;DHT22;44276;49.534;6.378;2024-01-15T09:28:12;0.20;99.90
53776;DHT22;44276;49.534;6.378;2024-01-15T09:30:40;0.20;99.90
53776;DHT22;44276;49.534;6.378;2024-01-15T09:33:08;0.20;99.90
53776;DHT22;44276;49.534;6.378;2024-01-15T09:35:37;0.30;99.90
53776;DHT22;44276;49.534;6.378;2024-01-15T09:38:05;0.30;99.90
53776;DHT22;44276;49.534;6.378;2024-01-15T09:40:34;0.40;99.90
53776;DHT22;44276;49.534;6.378;2024-01-15T09:43:06;0.50;99.90
53776;DHT22;44276;49.534;6.378;2024-01-15T09:45:36;0.50;99.90
53776;DHT22;44276;49.534;6.378;2024-01-15T09:48:05;0.60;99.90
53776;DHT22;44276;49.534;6.378;2024-01-15T09:50:34;0.60;99.90
53776;DHT22;44276;49.534;6.378;2024-01-15T09:53:04;0.60;99.90
53776;DHT22;44276;49.534;6.378;2024-01-15T09:55:33;0.60;99.90
53776;DHT22;44276;49.534;6.378;2024-01-15T09:58:02;0.60;99.90
53776;DHT22;44276;49.534;6.378;2024-01-15T10:00:33;0.50;99.90
53776;DHT22;44276;49.534;6.378;2024-01-15T10:03:06;0.50;99.90
53776;DHT22;44276;49.534;6.378;2024-01-15T10:05:37;0.50;99.90
53776;DHT22;44276;49.534;6.378;2024-01-15T10:08:06;0.60;99.90
53776;DHT22;44276;49.534;6.378;2024-01-15T10:10:36;0.60;99.90
53776;DHT22;44276;49.534;6.378;2024-01-15T10:13:04;0.60;99.90
53776;DHT22;44276;49.534;6.378;2024-01-15T10:15:34;0.70;99.90
53776;DHT22;44276;49.534;6.378;2024-01-15T10:18:05;0.80;99.90
53776;DHT22;44276;49.534;6.378;2024-01-15T10:20:34;0.80;99.90
53776;DHT22;44276;49.534;6.378;2024-01-15T10:23:03;0.80;99.90
53776;DHT22;44276;49.534;6.378;2024-01-15T10:25:32;0.80;99.90
53776;DHT22;44276;49.534;6.378;2024-01-15T10:28:01;0.70;99.90
53776;DHT22;44276;49.534;6.378;2024-01-15T10:30:32;0.80;99.90
53776;DHT22;44276;49.534;6.378;2024-01-15T10:33:02;0.90;99.90
53776;DHT22;44276;49.534;6.378;2024-01-15T10:35:34;1.10;99.90
53776;DHT22;44276;49.534;6.378;2024-01-15T10:38:03;1.10;99.90
53776;DHT22;44276;49.534;6.378;2024-01-15T10:40:34;1.10;99.90
53776;DHT22;44276;49.534;6.378;2024-01-15T10:43:02;1.10;99.90
53776;DHT22;44276;49.534;6.378;2024-01-15T10:45:31;1.10;99.90
53776;DHT22;44276;49.534;6.378;2024-01-15T10:47:59;1.10;99.90
53776;DHT22;44276;49.534;6.378;2024-01-15T10:50:29;1.20;99.90
53776;DHT22;44276;49.534;6.378;2024-01-15T10:53:01;1.30;99.90
53776;DHT22;44276;49.534;6.378;2024-01-15T10:55:32;1.50;99.90
53776;DHT22;44276;49.534;6.378;2024-01-15T10:58:03;1.60;99.90
53776;DHT22;44276;49.534;6.378;2024-01-15T11:00:31;1.70;99.90
53776;DHT22;44276;49.534;6.378;2024-01-15T11:03:01;1.70;99.90
53776;DHT22;44276;49.534;6.378;2024-01-15T11:05:36;1.50;99.90
53776;DHT22;44276;49.534;6.378;2024-01-15T11:08:07;1.40;99.90
53776;DHT22;44276;49.534;6.378;2024-01-15T11:10:40;1.40;99.90
53776;DHT22;44276;49.534;6.378;2024-01-15T11:13:10;1.50;99.90
53776;DHT22;44276;49.534;6.378;2024-01-15T11:15:58;1.60;99.90
53776;DHT22;44276;49.534;6.378;2024-01-15T11:18:29;1.80;99.90
53776;DHT22;44276;49.534;6.378;2024-01-15T11:21:26;2.10;99.90
53776;DHT22;44276;49.534;6.378;2024-01-15T11:23:58;2.40;99.90
53776;DHT22;44276;49.534;6.378;2024-01-15T11:26:35;2.30;99.90
53776;DHT22;44276;49.534;6.378;2024-01-15T11:29:06;2.40;99.90
53776;DHT22;44276;49.534;6.378;2024-01-15T11:31:58;2.40;99.90
53776;DHT22;44276;49.534;6.378;2024-01-15T11:34:53;2.40;99.90
53776;DHT22;44276;49.534;6.378;2024-01-15T11:37:27;2.50;99.90
53776;DHT22;44276;49.534;6.378;2024-01-15T11:40:02;2.40;99.90
53776;DHT22;44276;49.534;6.378;2024-01-15T11:42:31;2.40;99.90
53776;DHT22;44276;49.534;6.378;2024-01-15T11:45:00;3.00;99.90
53776;DHT22;44276;49.534;6.378;2024-01-15T11:50:41;5.40;99.90
53776;DHT22;44276;49.534;6.378;2024-01-15T11:53:31;4.80;99.00
53776;DHT22;44276;49.534;6.378;2024-01-15T11:56:03;3.90;99.90
53776;DHT22;44276;49.534;6.378;2024-01-15T11:58:38;3.80;99.90
53776;DHT22;44276;49.534;6.378;2024-01-15T12:01:06;4.00;99.90
53776;DHT22;44276;49.534;6.378;2024-01-15T12:03:35;4.30;99.90
53776;DHT22;44276;49.534;6.378;2024-01-15T12:06:05;4.60;99.90
53776;DHT22;44276;49.534;6.378;2024-01-15T12:08:36;4.50;99.90
53776;DHT22;44276;49.534;6.378;2024-01-15T12:11:07;4.60;95.00
53776;DHT22;44276;49.534;6.378;2024-01-15T12:13:41;4.40;94.10
53776;DHT22;44276;49.534;6.378;2024-01-15T12:16:10;4.60;93.70
53776;DHT22;44276;49.534;6.378;2024-01-15T12:18:38;4.30;94.10
53776;DHT22;44276;49.534;6.378;2024-01-15T12:21:06;3.70;99.90
53776;DHT22;44276;49.534;6.378;2024-01-15T12:23:36;3.50;99.90
53776;DHT22;44276;49.534;6.378;2024-01-15T12:26:06;3.00;99.90
53776;DHT22;44276;49.534;6.378;2024-01-15T12:28:36;2.40;99.90
53776;DHT22;44276;49.534;6.378;2024-01-15T12:31:06;2.70;99.90
53776;DHT22;44276;49.534;6.378;2024-01-15T12:33:35;2.80;99.90
53776;DHT22;44276;49.534;6.378;2024-01-15T12:36:04;2.90;99.90
53776;DHT22;44276;49.534;6.378;2024-01-15T12:38:33;3.20;99.90
53776;DHT22;44276;49.534;6.378;2024-01-15T12:41:02;3.60;99.90
53776;DHT22;44276;49.534;6.378;2024-01-15T12:43:32;4.00;99.90
53776;DHT22;44276;49.534;6.378;2024-01-15T12:46:00;4.20;99.10
53776;DHT22;44276;49.534;6.378;2024-01-15T12:48:29;4.40;95.40
53776;DHT22;44276;49.534;6.378;2024-01-15T12:50:57;4.70;92.10
53776;DHT22;44276;49.534;6.378;2024-01-15T12:53:26;4.80;92.50
53776;DHT22;44276;49.534;6.378;2024-01-15T12:55:54;4.30;96.40
53776;DHT22;44276;49.534;6.378;2024-01-15T12:58:23;3.80;99.70
53776;DHT22;44276;49.534;6.378;2024-01-15T13:00:52;3.60;99.90
53776;DHT22;44276;49.534;6.378;2024-01-15T13:03:20;3.70;99.90
53776;DHT22;44276;49.534;6.378;2024-01-15T13:05:50;3.90;99.90
53776;DHT22;44276;49.534;6.378;2024-01-15T13:08:19;4.20;98.50
53776;DHT22;44276;49.534;6.378;2024-01-15T13:10:50;4.50;92.20
53776;DHT22;44276;49.534;6.378;2024-01-15T13:13:19;4.70;88.40
53776;DHT22;44276;49.534;6.378;2024-01-15T13:15:49;4.90;88.20
53776;DHT22;44276;49.534;6.378;2024-01-15T13:18:17;4.60;80.90
53776;DHT22;44276;49.534;6.378;2024-01-15T13:20:46;4.00;91.20
53776;DHT22;44276;49.534;6.378;2024-01-15T13:23:14;3.60;95.50
53776;DHT22;44276;49.534;6.378;2024-01-15T13:25:43;3.60;98.90
53776;DHT22;44276;49.534;6.378;2024-01-15T13:28:11;3.90;95.20
53776;DHT22;44276;49.534;6.378;2024-01-15T13:30:39;3.80;93.40
53776;DHT22;44276;49.534;6.378;2024-01-15T13:33:10;3.60;92.20
53776;DHT22;44276;49.534;6.378;2024-01-15T13:35:38;3.30;98.30
53776;DHT22;44276;49.534;6.378;2024-01-15T13:38:07;3.30;94.60
53776;DHT22;44276;49.534;6.378;2024-01-15T13:40:35;3.20;96.10
53776;DHT22;44276;49.534;6.378;2024-01-15T13:43:04;3.00;99.90
53776;DHT22;44276;49.534;6.378;2024-01-15T13:45:34;2.80;99.90
53776;DHT22;44276;49.534;6.378;2024-01-15T13:48:04;2.70;99.90
53776;DHT22;44276;49.534;6.378;2024-01-15T13:50:36;2.60;99.90
53776;DHT22;44276;49.534;6.378;2024-01-15T13:53:05;2.50;99.90
53776;DHT22;44276;49.534;6.378;2024-01-15T13:55:33;2.40;99.90
53776;DHT22;44276;49.534;6.378;2024-01-15T13:58:01;2.30;99.90
53776;DHT22;44276;49.534;6.378;2024-01-15T14:00:32;2.10;99.90
53776;DHT22;44276;49.534;6.378;2024-01-15T14:03:01;2.00;99.90
53776;DHT22;44276;49.534;6.378;2024-01-15T14:05:30;2.00;99.90
53776;DHT22;44276;49.534;6.378;2024-01-15T14:08:00;2.00;99.90
53776;DHT22;44276;49.534;6.378;2024-01-15T14:10:28;2.10;99.90
53776;DHT22;44276;49.534;6.378;2024-01-15T14:12:56;2.10;99.90
53776;DHT22;44276;49.534;6.378;2024-01-15T14:15:24;2.00;99.90
53776;DHT22;44276;49.534;6.378;2024-01-15T14:17:54;2.00;99.90
53776;DHT22;44276;49.534;6.378;2024-01-15T14:20:23;2.10;99.90
53776;DHT22;44276;49.534;6.378;2024-01-15T14:22:51;2.20;99.90
53776;DHT22;44276;49.534;6.378;2024-01-15T14:25:21;2.10;99.90
53776;DHT22;44276;49.534;6.378;2024-01-15T14:27:50;2.00;99.90
53776;DHT22;44276;49.534;6.378;2024-01-15T14:30:19;1.90;99.90
53776;DHT22;44276;49.534;6.378;2024-01-15T14:32:47;1.90;99.90
53776;DHT22;44276;49.534;6.378;2024-01-15T14:35:16;1.80;99.90
53776;DHT22;44276;49.534;6.378;2024-01-15T14:37:44;1.70;99.90
53776;DHT22;44276;49.534;6.378;2024-01-15T14:40:12;1.50;99.90
53776;DHT22;44276;49.534;6.378;2024-01-15T14:42:45;1.40;99.90
53776;DHT22;44276;49.534;6.378;2024-01-15T14:45:13;1.30;99.90
53776;DHT22;44276;49.534;6.378;2024-01-15T14:47:41;1.20;99.90
53776;DHT22;44276;49.534;6.378;2024-01-15T14:50:11;1.20;99.90
53776;DHT22;44276;49.534;6.378;2024-01-15T14:52:40;1.20;99.90
53776;DHT22;44276;49.534;6.378;2024-01-15T14:55:09;1.50;99.90
53776;DHT22;44276;49.534;6.378;2024-01-15T14:57:38;1.80;99.90
53776;DHT22;44276;49.534;6.378;2024-01-15T15:00:08;1.80;99.90
53776;DHT22;44276;49.534;6.378;2024-01-15T15:02:38;1.60;99.90
53776;DHT22;44276;49.534;6.378;2024-01-15T15:05:08;1.50;99.90
53776;DHT22;44276;49.534;6.378;2024-01-15T15:07:40;1.50;99.90
53776;DHT22;44276;49.534;6.378;2024-01-15T15:10:09;1.30;99.90
53776;DHT22;44276;49.534;6.378;2024-01-15T15:12:38;1.50;99.90
53776;DHT22;44276;49.534;6.378;2024-01-15T15:15:10;1.60;99.90
53776;DHT22;44276;49.534;6.378;2024-01-15T15:17:46;1.80;99.90
53776;DHT22;44276;49.534;6.378;2024-01-15T15:20:14;2.10;99.90
53776;DHT22;44276;49.534;6.378;2024-01-15T15:22:43;2.20;99.90
53776;DHT22;44276;49.534;6.378;2024-01-15T15:25:11;2.20;99.90
53776;DHT22;44276;49.534;6.378;2024-01-15T15:27:40;2.30;99.90
53776;DHT22;44276;49.534;6.378;2024-01-15T15:30:10;2.30;99.90
53776;DHT22;44276;49.534;6.378;2024-01-15T15:32:39;2.20;99.90
53776;DHT22;44276;49.534;6.378;2024-01-15T15:35:07;2.10;99.90
53776;DHT22;44276;49.534;6.378;2024-01-15T15:37:36;2.10;99.90
53776;DHT22;44276;49.534;6.378;2024-01-15T15:40:05;2.00;99.90
53776;DHT22;44276;49.534;6.378;2024-01-15T15:42:36;1.90;99.90
53776;DHT22;44276;49.534;6.378;2024-01-15T15:45:05;1.70;99.90
53776;DHT22;44276;49.534;6.378;2024-01-15T15:47:35;1.50;99.90
53776;DHT22;44276;49.534;6.378;2024-01-15T15:50:04;1.40;99.90
53776;DHT22;44276;49.534;6.378;2024-01-15T15:52:33;1.40;99.90
53776;DHT22;44276;49.534;6.378;2024-01-15T15:55:02;1.30;99.90